createdAt,value
2023-03-02T00:04:22.712Z,100.00
2023-03-02T00:09:51.718Z,100.00
2023-03-02T00:15:15.740Z,100.00
2023-03-02T00:20:46.733Z,100.00
2023-03-02T00:26:14.763Z,100.00
2023-03-02T00:31:38.745Z,100.00
2023-03-02T00:37:03.725Z,100.00
2023-03-02T00:42:30.732Z,100.00
2023-03-02T00:47:55.716Z,100.00
2023-03-02T00:53:20.721Z,100.00
2023-03-02T00:58:48.750Z,100.00
2023-03-02T01:04:19.729Z,100.00
2023-03-02T01:09:44.862Z,100.00
2023-03-02T01:15:11.748Z,100.00
2023-03-02T01:20:37.750Z,100.00
2023-03-02T01:26:02.780Z,100.00
2023-03-02T01:31:30.776Z,100.00
2023-03-02T01:36:55.755Z,100.00
2023-03-02T01:43:11.576Z,100.00
2023-03-02T01:48:43.730Z,100.00
2023-03-02T01:54:29.739Z,100.00
2023-03-02T01:59:56.776Z,100.00
2023-03-02T02:05:40.770Z,100.00
2023-03-02T02:11:05.743Z,100.00
2023-03-02T02:16:31.380Z,100.00
2023-03-02T02:21:59.796Z,100.00
2023-03-02T02:27:28.766Z,100.00
2023-03-02T02:32:56.788Z,100.00
2023-03-02T02:38:23.801Z,100.00
2023-03-02T02:43:51.789Z,100.00
2023-03-02T02:49:18.776Z,100.00
2023-03-02T02:54:45.748Z,100.00
2023-03-02T03:00:18.782Z,100.00
2023-03-02T03:05:49.797Z,100.00
2023-03-02T03:11:15.797Z,100.00
2023-03-02T03:16:46.837Z,100.00
2023-03-02T03:22:11.778Z,100.00
2023-03-02T03:27:39.770Z,100.00
2023-03-02T03:33:08.766Z,100.00
2023-03-02T03:38:33.800Z,100.00
2023-03-02T03:43:58.768Z,100.00
2023-03-02T03:49:27.842Z,100.00
2023-03-02T03:54:53.782Z,100.00
2023-03-02T04:00:23.777Z,100.00
2023-03-02T04:06:03.801Z,100.00
2023-03-02T04:11:28.818Z,100.00
2023-03-02T04:16:54.813Z,100.00
2023-03-02T04:22:22.805Z,100.00
2023-03-02T04:27:47.809Z,100.00
2023-03-02T04:33:14.829Z,100.00
2023-03-02T04:38:41.796Z,100.00
2023-03-02T04:44:06.839Z,100.00
2023-03-02T04:49:33.805Z,100.00
2023-03-02T04:55:01.836Z,100.00
2023-03-02T05:00:28.873Z,100.00
2023-03-02T05:05:59.834Z,100.00
2023-03-02T05:11:32.811Z,100.00
2023-03-02T05:16:57.838Z,100.00
2023-03-02T05:22:22.814Z,100.00
2023-03-02T05:27:49.843Z,100.00
2023-03-02T05:33:14.849Z,100.00
2023-03-02T05:38:39.860Z,100.00
2023-03-02T05:44:07.843Z,100.00
2023-03-02T05:49:31.885Z,100.00
2023-03-02T05:54:59.137Z,100.00
2023-03-02T06:00:27.839Z,100.00
2023-03-02T06:05:59.826Z,100.00
2023-03-02T06:11:24.863Z,100.00
2023-03-02T06:16:51.845Z,100.00
2023-03-02T06:22:16.842Z,100.00
2023-03-02T06:27:40.853Z,100.00
2023-03-02T06:33:08.990Z,100.00
2023-03-02T06:38:32.837Z,100.00
2023-03-02T06:43:57.877Z,100.00
2023-03-02T06:49:25.832Z,100.00
2023-03-02T06:54:50.846Z,100.00
2023-03-02T07:00:17.838Z,100.00
2023-03-02T07:05:51.928Z,100.00
2023-03-02T07:11:17.889Z,100.00
2023-03-02T07:16:42.916Z,100.00
2023-03-02T07:22:10.822Z,100.00
2023-03-02T07:27:34.861Z,100.00
2023-03-02T07:32:59.895Z,100.00
2023-03-02T07:38:26.860Z,100.00
2023-03-02T07:43:51.881Z,100.00
2023-03-02T07:49:15.879Z,100.00
2023-03-02T07:54:43.865Z,100.00
2023-03-02T08:00:07.854Z,100.00
2023-03-02T08:05:39.877Z,100.00
2023-03-02T08:11:13.872Z,100.00
2023-03-02T08:16:38.015Z,100.00
2023-03-02T08:22:02.967Z,100.00
2023-03-02T08:27:31.862Z,100.00
2023-03-02T08:32:56.887Z,100.00
2023-03-02T08:38:20.888Z,100.00
2023-03-02T08:43:48.902Z,100.00
2023-03-02T08:49:12.887Z,100.00
2023-03-02T08:54:37.995Z,100.00
2023-03-02T09:00:04.913Z,100.00
2023-03-02T09:05:35.884Z,100.00
2023-03-02T09:11:00.950Z,100.00
2023-03-02T09:16:30.907Z,100.00
2023-03-02T09:21:56.929Z,100.00
2023-03-02T09:27:20.929Z,100.00
2023-03-02T09:32:49.107Z,100.00
2023-03-02T09:38:12.994Z,100.00
2023-03-02T09:43:51.883Z,100.00
2023-03-02T09:49:32.892Z,100.00
2023-03-02T09:54:57.934Z,100.00
2023-03-02T10:00:27.928Z,100.00
2023-03-02T10:06:02.908Z,100.00
2023-03-02T10:11:36.936Z,100.00
2023-03-02T10:17:04.901Z,100.00
2023-03-02T10:22:37.909Z,100.00
2023-03-02T10:28:06.942Z,100.00
2023-03-02T10:33:31.936Z,100.00
2023-03-02T10:38:58.966Z,100.00
2023-03-02T10:44:30.965Z,100.00
2023-03-02T10:49:58.930Z,100.00
2023-03-02T10:55:26.928Z,100.00
2023-03-02T11:00:51.913Z,100.00
2023-03-02T11:06:35.182Z,100.00
2023-03-02T11:12:08.042Z,100.00
2023-03-02T11:17:45.948Z,100.00
2023-03-02T11:23:24.119Z,100.00
2023-03-02T11:29:01.952Z,100.00
2023-03-02T11:34:37.934Z,100.00
2023-03-02T11:40:17.933Z,100.00
2023-03-02T11:45:51.956Z,100.00
2023-03-02T11:51:19.949Z,100.00
2023-03-02T11:56:47.949Z,100.00
2023-03-02T12:02:16.046Z,100.00
2023-03-02T12:07:40.973Z,100.00
2023-03-02T12:13:17.942Z,79.25
2023-03-02T12:19:05.971Z,65.60
2023-03-02T12:24:42.952Z,72.08
2023-03-02T12:30:22.016Z,79.29
2023-03-02T12:35:50.002Z,91.88
2023-03-02T12:41:56.068Z,93.30
2023-03-02T12:47:34.069Z,100.00
2023-03-02T12:53:09.970Z,93.82
2023-03-02T12:58:43.971Z,91.22
2023-03-02T13:04:09.005Z,85.99
2023-03-02T13:09:40.000Z,85.19
2023-03-02T13:15:07.995Z,78.43
2023-03-02T13:20:33.017Z,83.84
2023-03-02T13:26:02.999Z,74.79
2023-03-02T13:31:36.050Z,71.09
2023-03-02T13:37:02.052Z,74.85
2023-03-02T13:42:46.013Z,74.93
2023-03-02T13:48:24.039Z,67.74
2023-03-02T13:54:00.065Z,69.99
2023-03-02T13:59:29.004Z,67.38
2023-03-02T14:04:53.132Z,71.20
2023-03-02T14:10:20.036Z,64.15
2023-03-02T14:15:47.103Z,63.42
2023-03-02T14:21:12.059Z,61.88
2023-03-02T14:26:50.089Z,63.37
2023-03-02T14:32:20.084Z,60.62
2023-03-02T14:37:45.008Z,64.54
2023-03-02T14:43:10.043Z,60.93
2023-03-02T14:48:38.021Z,60.45
2023-03-02T14:54:06.031Z,60.03
2023-03-02T14:59:33.273Z,66.26
2023-03-02T15:05:07.053Z,61.27
2023-03-02T15:10:34.043Z,64.57
2023-03-02T15:16:00.119Z,68.33
2023-03-02T15:21:30.079Z,67.01
2023-03-02T15:26:54.070Z,71.18
2023-03-02T15:32:19.138Z,67.76
2023-03-02T15:37:46.064Z,69.71
2023-03-02T15:43:11.034Z,67.85
2023-03-02T15:48:35.060Z,73.08
2023-03-02T15:54:03.082Z,72.10
2023-03-02T15:59:28.061Z,83.27
2023-03-02T16:04:59.099Z,80.44
2023-03-02T16:10:28.063Z,85.03
2023-03-02T16:15:56.059Z,94.71
2023-03-02T16:21:22.095Z,92.06
2023-03-02T16:26:51.096Z,100.00
2023-03-02T16:32:16.189Z,100.00
2023-03-02T16:37:40.169Z,100.00
2023-03-02T16:43:08.107Z,100.00
2023-03-02T16:48:32.112Z,100.00
2023-03-02T16:53:58.099Z,100.00
2023-03-02T16:59:25.098Z,100.00
2023-03-02T17:04:50.120Z,100.00
2023-03-02T17:10:15.185Z,100.00
2023-03-02T17:15:43.169Z,100.00
2023-03-02T17:21:08.258Z,100.00
2023-03-02T17:26:36.628Z,100.00
2023-03-02T17:32:05.132Z,100.00
2023-03-02T17:37:32.120Z,100.00
2023-03-02T17:42:57.889Z,100.00
2023-03-02T17:48:28.116Z,100.00
2023-03-02T17:53:52.103Z,100.00
2023-03-02T17:59:17.132Z,100.00
2023-03-02T18:04:52.137Z,100.00
2023-03-02T18:10:22.153Z,100.00
2023-03-02T18:15:47.291Z,100.00
2023-03-02T18:21:16.135Z,100.00
2023-03-02T18:26:40.188Z,100.00
2023-03-02T18:32:20.167Z,100.00
2023-03-02T18:37:47.160Z,100.00
2023-03-02T18:43:12.140Z,100.00
2023-03-02T18:48:36.154Z,100.00
2023-03-02T18:54:04.156Z,100.00
2023-03-02T18:59:28.181Z,100.00
2023-03-02T19:04:53.128Z,100.00
2023-03-02T19:10:21.594Z,100.00
2023-03-02T19:15:46.183Z,100.00
2023-03-02T19:21:11.147Z,100.00
2023-03-02T19:26:39.175Z,100.00
2023-03-02T19:32:03.380Z,100.00
2023-03-02T19:37:28.145Z,100.00
2023-03-02T19:42:55.157Z,100.00
2023-03-02T19:48:20.143Z,100.00
2023-03-02T19:53:44.167Z,100.00
2023-03-02T19:59:12.191Z,100.00
2023-03-02T20:04:36.215Z,100.00
2023-03-02T20:10:01.172Z,100.00
2023-03-02T20:15:28.164Z,100.00
2023-03-02T20:20:55.176Z,100.00
2023-03-02T20:26:20.200Z,100.00
2023-03-02T20:31:48.177Z,100.00
2023-03-02T20:37:12.213Z,100.00
2023-03-02T20:42:39.162Z,100.00
2023-03-02T20:48:06.194Z,100.00
2023-03-02T20:53:32.305Z,100.00
2023-03-02T20:58:57.197Z,100.00
2023-03-02T21:04:25.264Z,100.00
2023-03-02T21:09:49.195Z,100.00
2023-03-02T21:15:15.176Z,100.00
2023-03-02T21:20:47.194Z,100.00
2023-03-02T21:26:12.208Z,100.00
2023-03-02T21:31:36.309Z,100.00
2023-03-02T21:37:11.218Z,100.00
2023-03-02T21:42:36.234Z,100.00
2023-03-02T21:48:01.213Z,100.00
2023-03-02T21:53:29.202Z,100.00
2023-03-02T21:58:54.250Z,100.00
2023-03-02T22:04:25.210Z,100.00
2023-03-02T22:09:53.294Z,100.00
2023-03-02T22:15:17.227Z,100.00
2023-03-02T22:20:42.190Z,100.00
2023-03-02T22:26:11.221Z,100.00
2023-03-02T22:31:36.239Z,100.00
2023-03-02T22:37:00.236Z,100.00
2023-03-02T22:42:30.260Z,100.00
2023-03-02T22:47:58.248Z,100.00
2023-03-02T22:53:33.261Z,100.00
2023-03-02T22:59:04.223Z,100.00
2023-03-02T23:04:38.310Z,100.00
2023-03-02T23:10:03.255Z,100.00
2023-03-02T23:15:36.262Z,100.00
2023-03-02T23:21:02.285Z,100.00
2023-03-02T23:26:27.254Z,100.00
2023-03-02T23:31:55.311Z,100.00
2023-03-02T23:37:19.279Z,100.00
2023-03-02T23:42:44.275Z,100.00
2023-03-02T23:48:11.249Z,100.00
2023-03-02T23:53:36.258Z,100.00
2023-03-02T23:59:00.255Z,100.00
